Time;durP1;ratioP1;P1;durP2;ratioP2;P2;SDS_P1;SDS_P2;PMS_P1;PMS_P2;Temp;Humidity;BMP_temperature;BMP_pressure;BME280_temperature;BME280_humidity;BME280_pressure;Samples;Min_cycle;Max_cycle;Signal;HPM_P1;HPM_P2
2023/04/18 00:00:28;;;;;;;5.82;2.35;;;;;;;27.75;29.58;101274.72;7397215;19;20011;-56
2023/04/18 00:02:54;;;;;;;4.53;2.00;;;;;;;27.38;29.81;101277.28;7393089;19;20015;-56
2023/04/18 00:05:20;;;;;;;1.88;1.52;;;;;;;27.55;29.60;101271.88;7393550;19;20014;-56
2023/04/18 00:07:47;;;;;;;3.92;2.30;;;;;;;27.67;29.55;101270.25;7395075;19;20014;-57
2023/04/18 00:10:13;;;;;;;1.60;1.40;;;;;;;27.93;29.17;101270.06;7401699;19;20006;-56
2023/04/18 00:12:39;;;;;;;4.63;1.95;;;;;;;28.19;29.32;101281.31;7399074;19;20011;-57
2023/04/18 00:15:08;;;;;;;4.05;2.20;;;;;;;28.19;28.79;101272.72;7399440;19;20438;-57
2023/04/18 00:17:37;;;;;;;1.92;0.70;;;;;;;28.17;29.04;101283.22;7399579;19;20344;-57
2023/04/18 00:20:09;;;;;;;3.58;1.40;;;;;;;28.19;28.62;101283.41;7403495;19;20035;-56
2023/04/18 00:22:41;;;;;;;2.92;1.05;;;;;;;28.13;28.38;101277.81;7398982;19;20018;-56
2023/04/18 00:25:09;;;;;;;4.13;2.10;;;;;;;27.70;28.93;101277.72;7397159;19;20090;-57
2023/04/18 00:27:37;;;;;;;1.95;1.55;;;;;;;27.63;28.59;101272.72;7398896;19;20017;-57
2023/04/18 00:30:04;;;;;;;2.60;1.42;;;;;;;27.60;28.77;101279.56;7401026;19;20039;-57
2023/04/18 00:32:30;;;;;;;8.00;2.05;;;;;;;27.66;28.33;101268.72;7403904;19;20011;-57
2023/04/18 00:34:58;;;;;;;8.50;2.92;;;;;;;27.35;28.76;101264.88;7399639;19;20527;-56
2023/04/18 00:37:25;;;;;;;10.95;1.98;;;;;;;27.30;28.91;101274.34;7396397;19;20007;-56
2023/04/18 00:39:52;;;;;;;4.22;2.28;;;;;;;27.39;28.86;101264.50;7402986;19;20010;-57
2023/04/18 00:42:20;;;;;;;2.78;1.80;;;;;;;27.53;29.17;101268.81;7399036;19;20018;-58
2023/04/18 00:44:47;;;;;;;2.22;1.20;;;;;;;27.56;29.47;101268.47;7399392;19;20036;-57
2023/04/18 00:47:16;;;;;;;2.92;1.92;;;;;;;27.83;29.39;101268.28;7399063;19;20456;-57
2023/04/18 00:49:44;;;;;;;2.67;2.25;;;;;;;27.76;29.23;101267.66;7399848;19;20018;-57
2023/04/18 00:52:11;;;;;;;4.35;2.28;;;;;;;27.72;29.42;101272.97;7397362;19;20467;-57
2023/04/18 00:54:40;;;;;;;6.82;2.13;;;;;;;27.70;29.54;101267.03;7399728;19;20074;-57
2023/04/18 00:57:06;;;;;;;4.72;1.90;;;;;;;27.82;29.90;101266.72;7398747;19;20010;-57
2023/04/18 00:59:34;;;;;;;4.68;2.58;;;;;;;27.68;29.76;101260.34;7401776;19;20014;-57
2023/04/18 01:02:03;;;;;;;2.08;1.50;;;;;;;27.62;29.82;101271.19;7398696;19;20022;-57
2023/04/18 01:04:33;;;;;;;7.85;2.03;;;;;;;27.76;30.14;101261.91;7397262;19;20006;-57
2023/04/18 01:07:01;;;;;;;4.70;1.80;;;;;;;27.95;29.87;101258.81;7398881;19;20021;-57
2023/04/18 01:09:29;;;;;;;3.47;1.98;;;;;;;28.00;30.04;101257.91;7397859;19;20070;-56
2023/04/18 01:11:55;;;;;;;9.80;3.20;;;;;;;28.19;29.50;101260.50;7397518;19;20019;-57
2023/04/18 01:14:22;;;;;;;2.42;2.03;;;;;;;28.31;29.30;101265.31;7396417;19;20356;-57
2023/04/18 01:16:48;;;;;;;9.93;3.45;;;;;;;28.34;29.70;101264.19;7396734;19;20044;-57
2023/04/18 01:19:18;;;;;;;7.10;3.42;;;;;;;28.42;29.59;101262.13;7395766;19;20086;-57
2023/04/18 01:21:44;;;;;;;11.50;2.03;;;;;;;28.31;29.85;101256.72;7397874;19;20094;-62
2023/04/18 01:24:14;;;;;;;5.00;3.22;;;;;;;28.39;29.82;101262.50;7396472;19;20519;-62
2023/04/18 01:26:48;;;;;;;3.35;2.40;;;;;;;28.24;30.02;101259.56;7396501;19;20018;-62
2023/04/18 01:29:14;;;;;;;3.50;2.50;;;;;;;28.21;29.75;101257.81;7399205;19;20024;-62
2023/04/18 01:31:40;;;;;;;4.57;1.35;;;;;;;28.23;30.06;101255.94;7396060;19;20066;-62
2023/04/18 01:34:07;;;;;;;6.35;2.38;;;;;;;28.26;29.81;101249.06;7399709;19;20015;-61
2023/04/18 01:36:34;;;;;;;7.93;3.92;;;;;;;28.36;30.24;101263.63;7395678;19;20408;-61
2023/04/18 01:39:02;;;;;;;11.13;2.63;;;;;;;28.36;30.02;101260.75;7397428;19;20027;-61
2023/04/18 01:41:31;;;;;;;5.97;2.08;;;;;;;28.33;30.16;101259.78;7396076;19;20014;-62
2023/04/18 01:43:58;;;;;;;10.63;1.85;;;;;;;28.09;30.45;101259.50;7395184;19;20074;-62
2023/04/18 01:46:25;;;;;;;8.77;2.10;;;;;;;28.37;30.38;101270.91;7396616;19;20362;-64
2023/04/18 01:48:52;;;;;;;1.80;1.55;;;;;;;28.33;30.28;101265.53;7397854;19;20015;-61
2023/04/18 01:51:20;;;;;;;4.38;2.03;;;;;;;28.52;29.97;101270.97;7394794;19;20011;-62
2023/04/18 01:53:46;;;;;;;1.65;1.40;;;;;;;28.74;30.00;101255.94;7397385;19;20003;-62
2023/04/18 01:56:12;;;;;;;4.20;1.92;;;;;;;28.82;30.03;101258.84;7394768;19;20011;-62
2023/04/18 01:58:40;;;;;;;7.45;2.15;;;;;;;28.66;30.05;101260.13;7396009;19;20372;-62
2023/04/18 02:01:06;;;;;;;3.38;2.67;;;;;;;28.73;29.87;101259.38;7397124;19;20026;-62
2023/04/18 02:03:33;;;;;;;2.95;2.65;;;;;;;28.67;29.83;101256.69;7394124;19;20011;-63
2023/04/18 02:06:00;;;;;;;10.88;2.47;;;;;;;28.50;30.15;101256.44;7394631;19;20031;-63
2023/04/18 02:08:26;;;;;;;4.47;2.17;;;;;;;28.70;30.16;101257.63;7395561;19;20035;-63
2023/04/18 02:10:52;;;;;;;3.30;2.28;;;;;;;28.93;29.88;101258.47;7395778;19;20415;-62
2023/04/18 02:13:20;;;;;;;2.20;1.48;;;;;;;29.21;29.67;101256.25;7395262;19;20025;-62
2023/04/18 02:15:46;;;;;;;3.85;2.28;;;;;;;29.27;29.94;101258.16;7395675;19;20014;-63
2023/04/18 02:18:16;;;;;;;4.50;2.58;;;;;;;28.91;29.96;101258.28;7397547;19;20018;-63
2023/04/18 02:20:42;;;;;;;5.03;1.20;;;;;;;29.00;29.68;101252.00;7396144;19;20083;-62
2023/04/18 02:23:08;;;;;;;3.78;1.77;;;;;;;29.24;29.52;101257.19;7395383;19;20014;-63
2023/04/18 02:25:34;;;;;;;11.60;2.20;;;;;;;29.30;29.53;101257.78;7395711;19;20006;-63
2023/04/18 02:28:00;;;;;;;5.45;2.08;;;;;;;29.21;29.78;101258.34;7394814;19;20009;-63
2023/04/18 02:30:30;;;;;;;3.10;2.45;;;;;;;29.13;29.98;101255.44;7398084;19;20014;-63
2023/04/18 02:32:56;;;;;;;6.63;1.73;;;;;;;29.08;29.92;101261.38;7394752;19;20011;-62
2023/04/18 02:35:24;;;;;;;8.57;1.70;;;;;;;28.94;29.80;101257.91;7393114;19;20022;-62
2023/04/18 02:37:50;;;;;;;5.57;3.75;;;;;;;28.99;30.31;101256.19;7392964;19;20013;-62
2023/04/18 02:40:17;;;;;;;9.20;2.63;;;;;;;28.99;29.74;101250.44;7397202;19;20011;-62
2023/04/18 02:42:44;;;;;;;13.88;4.03;;;;;;;28.89;29.72;101255.22;7393738;19;20440;-63
2023/04/18 02:45:14;;;;;;;13.32;4.38;;;;;;;28.77;30.08;101257.69;7392318;19;20565;-63
2023/04/18 02:47:40;;;;;;;6.47;2.65;;;;;;;28.52;30.30;101260.25;7392048;19;20018;-63
2023/04/18 02:50:07;;;;;;;4.18;2.13;;;;;;;29.06;29.98;101255.44;7394020;19;20014;-63
2023/04/18 02:52:34;;;;;;;6.10;3.53;;;;;;;28.98;29.98;101254.63;7390788;19;20015;-62
2023/04/18 02:55:01;;;;;;;5.82;2.97;;;;;;;28.26;30.67;101257.66;7393900;19;20010;-63
2023/04/18 02:57:32;;;;;;;5.30;3.30;;;;;;;28.84;30.01;101256.16;7391345;19;20018;-63
2023/04/18 03:00:31;;;;;;;1.80;1.65;;;;;;;28.60;30.63;101259.53;7390528;19;20014;-63
2023/04/18 03:03:22;;;;;;;2.85;1.35;;;;;;;28.38;30.63;101258.88;7391311;19;20006;-63
2023/04/18 03:06:11;;;;;;;3.88;2.63;;;;;;;28.30;30.63;101255.22;7391532;19;20010;-63
2023/04/18 03:08:37;;;;;;;9.20;2.10;;;;;;;28.26;30.72;101257.66;7393934;19;20070;-63
2023/04/18 03:11:05;;;;;;;7.40;2.60;;;;;;;28.29;30.90;101250.78;7391794;19;20010;-63
2023/04/18 03:13:33;;;;;;;9.63;2.38;;;;;;;28.27;31.16;101255.56;7390621;19;20014;-63
2023/04/18 03:16:01;;;;;;;2.42;1.90;;;;;;;28.69;30.44;101256.13;7391125;19;20028;-63
2023/04/18 03:18:28;;;;;;;2.15;1.60;;;;;;;28.60;30.60;101253.78;7392134;19;20014;-64
2023/04/18 03:20:57;;;;;;;1.60;1.17;;;;;;;28.45;30.48;101261.00;7392578;19;20018;-64
2023/04/18 03:23:23;;;;;;;4.05;2.30;;;;;;;28.46;30.93;101258.88;7391026;19;20355;-63
2023/04/18 03:25:49;;;;;;;17.48;2.67;;;;;;;28.63;30.71;101258.41;7391984;19;20002;-63
2023/04/18 03:28:16;;;;;;;7.70;2.67;;;;;;;28.64;31.24;101259.94;7391493;19;20017;-63
2023/04/18 03:30:43;;;;;;;5.80;2.38;;;;;;;28.59;30.89;101261.63;7390853;19;20520;-64
2023/04/18 03:33:10;;;;;;;8.63;3.40;;;;;;;28.43;31.01;101257.16;7392482;19;20350;-64
2023/04/18 03:35:36;;;;;;;17.38;3.20;;;;;;;28.55;30.76;101255.47;7390829;19;20018;-63
2023/04/18 03:38:02;;;;;;;7.70;3.10;;;;;;;28.57;31.14;101252.06;7392119;19;20010;-63
2023/04/18 03:40:32;;;;;;;5.93;2.30;;;;;;;28.70;31.16;101258.41;7394347;19;20024;-63
2023/04/18 03:43:07;;;;;;;15.63;3.67;;;;;;;28.81;30.76;101258.06;7389480;19;20006;-63
2023/04/18 03:45:34;;;;;;;6.68;3.80;;;;;;;29.07;30.55;101262.69;7392032;19;20014;-63
2023/04/18 03:48:00;;;;;;;6.13;3.17;;;;;;;28.92;30.76;101257.69;7392314;19;20027;-64
2023/04/18 03:50:26;;;;;;;9.48;4.25;;;;;;;29.24;30.53;101257.19;7393992;19;20032;-63
2023/04/18 03:52:55;;;;;;;11.35;3.03;;;;;;;29.31;30.61;101253.56;7390368;19;20010;-63
2023/04/18 03:55:21;;;;;;;4.28;2.03;;;;;;;29.16;30.40;101256.41;7394340;19;20018;-64
2023/04/18 03:57:48;;;;;;;8.68;2.35;;;;;;;28.99;30.77;101256.97;7391324;19;20011;-65
2023/04/18 04:00:21;;;;;;;14.68;3.72;;;;;;;28.84;30.73;101259.03;7395868;19;20007;-64
2023/04/18 04:02:57;;;;;;;14.65;3.10;;;;;;;28.84;30.66;101253.28;7391553;19;20014;-65
2023/04/18 04:05:24;;;;;;;19.08;4.13;;;;;;;28.91;30.29;101264.75;7390861;19;20019;-64
2023/04/18 04:07:50;;;;;;;8.95;2.38;;;;;;;29.18;30.39;101256.63;7392294;19;20022;-64
2023/04/18 04:10:17;;;;;;;4.88;2.85;;;;;;;29.31;30.06;101253.56;7394266;19;20018;-63
2023/04/18 04:12:43;;;;;;;12.05;4.57;;;;;;;29.36;30.18;101254.72;7391783;19;20019;-63
2023/04/18 04:15:10;;;;;;;17.85;2.72;;;;;;;29.25;30.04;101255.88;7390923;19;20015;-64
2023/04/18 04:17:41;;;;;;;;;;;;;;;29.58;29.69;101257.59;7390892;19;20015;-64
2023/04/18 04:20:08;;;;;;;16.15;3.58;;;;;;;29.41;29.65;101257.38;7393864;19;19955;-63
2023/04/18 04:22:35;;;;;;;15.90;3.88;;;;;;;29.28;29.85;101254.72;7390015;19;20066;-63
2023/04/18 04:25:03;;;;;;;5.88;2.13;;;;;;;29.12;29.90;101253.16;7391721;19;20014;-63
2023/04/18 04:27:35;;;;;;;7.93;2.80;;;;;;;29.41;30.23;101251.63;7391272;19;20066;-63
2023/04/18 04:30:04;;;;;;;5.82;3.05;;;;;;;29.13;30.21;101258.31;7392454;19;20047;-63
2023/04/18 04:32:31;;;;;;;8.90;3.53;;;;;;;29.13;30.12;101261.16;7390205;19;20014;-63
2023/04/18 04:34:58;;;;;;;7.50;3.03;;;;;;;29.49;30.12;101258.16;7388812;19;20003;-63
2023/04/18 04:37:26;;;;;;;4.13;2.55;;;;;;;29.32;30.35;101254.34;7389166;19;20372;-63
2023/04/18 04:40:09;;;;;;;13.38;3.50;;;;;;;29.05;30.17;101262.50;7393841;19;20391;-63
2023/04/18 04:42:46;;;;;;;12.18;2.75;;;;;;;28.87;30.23;101260.78;7392973;19;20019;-63
2023/04/18 04:45:19;;;;;;;14.60;5.90;;;;;;;28.76;30.38;101252.53;7389573;19;20386;-62
2023/04/18 04:47:45;;;;;;;17.63;5.47;;;;;;;28.86;30.91;101251.38;7390750;19;20023;-63
2023/04/18 04:50:14;;;;;;;17.65;4.72;;;;;;;28.52;30.88;101257.38;7393927;19;20015;-63
2023/04/18 04:52:41;;;;;;;15.80;5.05;;;;;;;28.47;30.93;101254.69;7391386;19;20366;-62
2023/04/18 04:55:08;;;;;;;18.70;5.15;;;;;;;28.44;30.80;101258.69;7396190;19;20015;-63
2023/04/18 04:57:34;;;;;;;8.50;2.40;;;;;;;28.39;31.19;101263.25;7395942;19;20018;-63
2023/04/18 05:00:05;;;;;;;3.65;2.63;;;;;;;28.31;31.30;101258.81;7398940;19;20458;-63
2023/04/18 05:02:32;;;;;;;27.02;4.47;;;;;;;28.76;30.75;101255.38;7396495;19;20452;-63
2023/04/18 05:04:58;;;;;;;13.02;5.03;;;;;;;28.67;30.86;101248.09;7396002;19;20010;-64
2023/04/18 05:07:24;;;;;;;15.50;3.40;;;;;;;28.64;30.83;101259.94;7402344;19;20011;-63
2023/04/18 05:09:52;;;;;;;10.23;3.72;;;;;;;28.17;31.29;101257.44;7398292;19;20014;-63
2023/04/18 05:12:18;;;;;;;18.85;4.95;;;;;;;28.41;31.50;101265.56;7398253;19;20022;-63
2023/04/18 05:14:44;;;;;;;12.68;3.67;;;;;;;28.61;31.26;101269.69;7397131;19;20011;-62
2023/04/18 05:17:10;;;;;;;7.55;3.20;;;;;;;29.09;30.89;101265.75;7398216;19;20015;-63
2023/04/18 05:19:36;;;;;;;8.95;3.22;;;;;;;28.96;31.23;101268.78;7400048;19;20030;-63
2023/04/18 05:22:02;;;;;;;23.23;5.20;;;;;;;29.04;31.15;101276.06;7397766;19;20019;-63
2023/04/18 05:24:30;;;;;;;17.05;3.50;;;;;;;28.95;30.99;101273.00;7396315;19;20015;-63
2023/04/18 05:26:56;;;;;;;12.80;3.85;;;;;;;28.96;31.05;101274.53;7396872;19;20027;-62
2023/04/18 05:29:22;;;;;;;5.43;2.50;;;;;;;28.93;30.74;101281.44;7399300;19;20022;-62
2023/04/18 05:31:49;;;;;;;2.97;2.40;;;;;;;28.78;30.99;101287.13;7398151;19;20018;-62
2023/04/18 05:34:15;;;;;;;11.35;3.85;;;;;;;28.88;30.93;101285.22;7397600;19;20046;-62
2023/04/18 05:36:41;;;;;;;3.50;1.50;;;;;;;29.45;30.56;101286.50;7397409;19;20018;-62
2023/04/18 05:39:07;;;;;;;12.27;2.65;;;;;;;29.67;30.33;101285.69;7399490;19;20439;-62
2023/04/18 05:41:33;;;;;;;3.60;2.65;;;;;;;29.87;30.13;101286.84;7396898;19;20506;-62
2023/04/18 05:43:59;;;;;;;5.25;2.88;;;;;;;29.91;30.38;101290.09;7398203;19;20354;-62
2023/04/18 05:46:26;;;;;;;7.82;1.98;;;;;;;29.84;30.34;101300.25;7397920;19;20015;-63
2023/04/18 05:48:52;;;;;;;15.23;4.45;;;;;;;29.61;30.41;101299.50;7397321;19;20014;-63
2023/04/18 05:51:18;;;;;;;5.78;2.45;;;;;;;29.29;30.53;101299.28;7396359;19;20011;-63
2023/04/18 05:53:44;;;;;;;11.07;3.65;;;;;;;29.07;31.03;101306.50;7397532;19;20010;-62
2023/04/18 05:56:10;;;;;;;10.13;3.42;;;;;;;29.03;30.61;101308.22;7394172;19;20066;-63
2023/04/18 05:58:36;;;;;;;10.50;3.40;;;;;;;28.80;30.64;101308.16;7395496;19;20035;-62
2023/04/18 06:01:03;;;;;;;6.55;2.40;;;;;;;28.74;30.85;101304.69;7394655;19;20052;-63
2023/04/18 06:03:29;;;;;;;5.70;1.65;;;;;;;27.84;32.05;101304.16;7396650;19;20014;-63
2023/04/18 06:05:55;;;;;;;8.68;2.22;;;;;;;27.91;32.19;101304.22;7395231;19;20015;-63
2023/04/18 06:08:21;;;;;;;12.18;1.95;;;;;;;27.56;32.09;101313.50;7393672;19;20011;-62
2023/04/18 06:10:47;;;;;;;5.97;2.65;;;;;;;28.08;31.96;101307.41;7393139;19;20006;-63
2023/04/18 06:13:13;;;;;;;6.15;2.33;;;;;;;28.42;31.48;101305.13;7395168;19;20531;-62
2023/04/18 06:15:39;;;;;;;7.10;2.78;;;;;;;28.56;31.46;101319.31;7395315;19;20014;-62
2023/04/18 06:18:06;;;;;;;3.10;2.00;;;;;;;28.50;31.07;101311.63;7394849;19;20036;-63
2023/04/18 06:20:32;;;;;;;3.95;3.45;;;;;;;28.41;31.31;101305.69;7398596;19;20018;-62
2023/04/18 06:22:58;;;;;;;12.60;2.80;;;;;;;28.12;31.49;101307.81;7394818;19;20333;-62
2023/04/18 06:25:24;;;;;;;13.15;3.63;;;;;;;28.39;30.77;101306.22;7395861;19;20352;-61
2023/04/18 06:27:51;;;;;;;3.28;1.77;;;;;;;28.72;30.56;101307.34;7399530;19;20130;-62
2023/04/18 06:30:20;;;;;;;11.43;3.90;;;;;;;29.08;30.66;101316.66;7397295;19;20017;-62
2023/04/18 06:32:47;;;;;;;7.15;1.80;;;;;;;29.04;30.17;101321.22;7392973;19;20018;-62
2023/04/18 06:35:13;;;;;;;7.10;2.40;;;;;;;29.17;29.92;101318.22;7391747;19;20035;-62
2023/04/18 06:37:42;;;;;;;2.85;2.33;;;;;;;29.29;30.34;101322.25;7392665;19;20045;-61
2023/04/18 06:40:12;;;;;;;5.57;1.77;;;;;;;29.59;30.04;101327.25;7396915;19;20067;-62
2023/04/18 06:42:38;;;;;;;8.30;1.85;;;;;;;29.49;29.54;101329.16;7396754;19;20358;-62
2023/04/18 06:45:05;;;;;;;5.85;2.13;;;;;;;29.55;29.44;101324.75;7390951;19;20013;-62
2023/04/18 06:47:31;;;;;;;8.50;2.00;;;;;;;29.40;29.76;101326.84;7394394;19;20017;-62
2023/04/18 06:49:57;;;;;;;5.20;2.35;;;;;;;29.19;29.26;101333.50;7397298;19;20115;-62
2023/04/18 06:52:24;;;;;;;9.40;3.60;;;;;;;29.22;29.26;101325.88;7391449;19;20460;-62
2023/04/18 06:54:50;;;;;;;4.40;2.38;;;;;;;29.33;29.54;101322.63;7395683;19;20029;-62
2023/04/18 06:57:16;;;;;;;10.32;3.95;;;;;;;29.63;29.20;101319.78;7392821;19;20344;-62
2023/04/18 06:59:42;;;;;;;11.30;2.97;;;;;;;29.89;29.07;101322.28;7396583;19;20010;-62
2023/04/18 07:02:08;;;;;;;7.65;2.15;;;;;;;30.07;28.87;101323.22;7393758;19;20428;-62
2023/04/18 07:04:35;;;;;;;5.63;1.90;;;;;;;30.36;28.52;101326.63;7393434;19;20018;-62
2023/04/18 07:07:02;;;;;;;1.65;1.55;;;;;;;30.48;28.18;101327.72;7393050;19;20018;-62
2023/04/18 07:09:28;;;;;;;12.45;2.83;;;;;;;30.81;27.79;101319.91;7393413;19;20025;-59
2023/04/18 07:11:55;;;;;;;8.55;2.08;;;;;;;30.61;28.35;101327.47;7394745;19;20374;-58
2023/04/18 07:14:22;;;;;;;6.18;3.17;;;;;;;30.86;28.11;101328.38;7391858;19;20007;-59
2023/04/18 07:16:48;;;;;;;5.72;2.85;;;;;;;31.01;28.26;101325.41;7390880;19;20011;-58
2023/04/18 07:19:14;;;;;;;8.95;3.95;;;;;;;31.14;27.70;101327.22;7395322;19;20010;-58
2023/04/18 07:21:42;;;;;;;12.55;3.63;;;;;;;31.05;28.15;101331.50;7392701;19;20022;-58
2023/04/18 07:24:09;;;;;;;16.55;3.55;;;;;;;30.92;27.66;101326.03;7392430;19;20010;-58
2023/04/18 07:26:36;;;;;;;13.13;3.83;;;;;;;30.96;27.84;101323.50;7392777;19;20007;-58
2023/04/18 07:29:02;;;;;;;15.25;3.78;;;;;;;30.95;28.02;101324.09;7391124;19;20078;-59
2023/04/18 07:31:30;;;;;;;11.02;3.42;;;;;;;30.99;27.70;101325.19;7392946;19;20106;-59
2023/04/18 07:33:56;;;;;;;7.70;1.98;;;;;;;31.14;28.13;101312.84;7392885;19;20096;-59
2023/04/18 07:36:23;;;;;;;4.70;2.63;;;;;;;31.27;28.21;101321.94;7394257;19;20015;-59
2023/04/18 07:38:50;;;;;;;15.63;3.47;;;;;;;31.20;28.07;101308.38;7394850;19;20066;-59
2023/04/18 07:41:16;;;;;;;10.73;3.40;;;;;;;30.68;28.55;101306.56;7395466;19;20011;-58
2023/04/18 07:43:43;;;;;;;7.65;3.92;;;;;;;30.71;28.42;101314.00;7392993;19;20459;-58
2023/04/18 07:46:09;;;;;;;17.63;4.70;;;;;;;30.75;28.45;101317.25;7391612;19;20018;-62
2023/04/18 07:48:35;;;;;;;11.00;3.88;;;;;;;30.93;28.01;101315.28;7395960;19;20003;-58
2023/04/18 07:51:02;;;;;;;9.52;3.08;;;;;;;30.64;28.06;101317.69;7390101;19;20014;-58
2023/04/18 07:53:28;;;;;;;7.20;2.90;;;;;;;30.36;28.53;101309.38;7396685;19;20036;-58
2023/04/18 07:55:55;;;;;;;6.60;1.95;;;;;;;29.93;28.47;101316.91;7392404;19;20025;-58
2023/04/18 07:58:21;;;;;;;4.93;3.78;;;;;;;29.71;28.83;101303.31;7392301;19;20010;-58
2023/04/18 08:00:47;;;;;;;11.82;3.72;;;;;;;30.03;28.80;101304.81;7392142;19;20040;-59
2023/04/18 08:03:13;;;;;;;7.30;3.42;;;;;;;30.43;28.50;101308.59;7390251;19;20014;-58
2023/04/18 08:05:41;;;;;;;5.30;2.22;;;;;;;30.59;28.67;101298.53;7392403;19;20006;-58
2023/04/18 08:08:09;;;;;;;14.40;3.90;;;;;;;30.84;27.91;101290.72;7390446;19;20345;-58
2023/04/18 08:10:36;;;;;;;12.52;4.00;;;;;;;30.87;28.16;101289.59;7388736;19;20488;-58
2023/04/18 08:13:03;;;;;;;18.80;5.43;;;;;;;31.00;27.81;101297.97;7392339;19;20071;-59
2023/04/18 08:15:31;;;;;;;5.78;2.30;;;;;;;31.24;27.91;101290.69;7392523;19;20011;-59
2023/04/18 08:17:58;;;;;;;8.90;3.40;;;;;;;31.32;28.07;101292.16;7392038;19;20014;-59
2023/04/18 08:20:24;;;;;;;8.27;3.15;;;;;;;31.52;27.82;101292.41;7395256;19;20010;-59
2023/04/18 08:22:50;;;;;;;11.00;4.18;;;;;;;31.86;27.54;101292.50;7390493;19;20006;-59
2023/04/18 08:25:17;;;;;;;12.70;3.35;;;;;;;31.82;27.75;101295.78;7394776;19;20011;-58
2023/04/18 08:27:43;;;;;;;8.43;3.78;;;;;;;31.62;27.37;101293.31;7391063;19;20040;-59
2023/04/18 08:30:10;;;;;;;9.05;4.22;;;;;;;31.53;27.56;101297.59;7399253;19;20046;-58
2023/04/18 08:32:36;;;;;;;5.38;2.80;;;;;;;31.46;27.60;101297.66;7398491;19;20041;-59
2023/04/18 08:35:02;;;;;;;9.27;3.33;;;;;;;31.40;27.62;101295.75;7397955;19;20350;-58
2023/04/18 08:37:29;;;;;;;14.43;2.95;;;;;;;31.32;27.69;101283.53;7399480;19;20019;-58
2023/04/18 08:39:56;;;;;;;9.10;2.58;;;;;;;31.37;27.39;101285.41;7401609;19;20463;-58
2023/04/18 08:42:22;;;;;;;8.40;2.55;;;;;;;31.39;27.19;101291.34;7398823;19;20036;-58
2023/04/18 08:44:48;;;;;;;7.40;2.60;;;;;;;31.27;27.24;101283.78;7398572;19;20003;-59
2023/04/18 08:47:15;;;;;;;4.43;2.40;;;;;;;31.35;27.23;101288.13;7397152;19;20021;-59
2023/04/18 08:49:42;;;;;;;5.05;3.22;;;;;;;31.27;27.01;101290.28;7396587;19;20025;-59
2023/04/18 08:52:12;;;;;;;11.70;3.30;;;;;;;31.53;27.09;101291.84;7397469;19;20011;-58
2023/04/18 08:54:41;;;;;;;13.55;3.75;;;;;;;31.73;27.26;101293.56;7400954;19;20019;-58
2023/04/18 08:57:11;;;;;;;5.63;3.85;;;;;;;31.80;26.98;101289.06;7398446;19;20406;-58
2023/04/18 08:59:38;;;;;;;8.35;3.88;;;;;;;32.08;27.00;101282.84;7399968;19;20015;-58
2023/04/18 09:02:07;;;;;;;5.63;2.60;;;;;;;31.40;27.57;101277.72;7397160;19;20484;-60
2023/04/18 09:04:39;;;;;;;6.28;3.38;;;;;;;31.25;27.26;101281.47;7398286;19;20037;-60
2023/04/18 09:07:08;;;;;;;3.60;1.77;;;;;;;31.43;27.80;101274.44;7398005;19;20011;-59
2023/04/18 09:09:47;;;;;;;8.20;3.00;;;;;;;31.64;27.50;101274.03;7400335;19;20003;-60
2023/04/18 09:12:21;;;;;;;5.78;2.75;;;;;;;31.66;26.69;101270.59;7393669;19;20014;-59
2023/04/18 09:14:50;;;;;;;4.22;2.45;;;;;;;32.43;26.20;101255.53;7397585;19;20035;-59
2023/04/18 09:17:33;;;;;;;8.88;2.65;;;;;;;32.80;26.04;101265.03;7395324;19;20017;-59
2023/04/18 09:20:00;;;;;;;10.25;2.72;;;;;;;32.92;25.69;101266.00;7398912;19;20468;-59
2023/04/18 09:22:45;;;;;;;7.82;2.17;;;;;;;32.83;24.84;101258.09;7395971;19;20018;-59
2023/04/18 09:25:23;;;;;;;16.70;2.58;;;;;;;32.88;24.70;101260.69;7396036;19;20019;-60
2023/04/18 09:27:49;;;;;;;6.68;3.05;;;;;;;33.10;25.35;101255.19;7397074;19;20035;-60
2023/04/18 09:30:31;;;;;;;5.65;2.28;;;;;;;32.98;25.87;101251.31;7399925;19;20022;-59
2023/04/18 09:32:59;;;;;;;3.28;1.65;;;;;;;33.35;25.76;101249.97;7396498;19;20347;-60
2023/04/18 09:35:25;;;;;;;5.43;2.20;;;;;;;33.38;25.46;101243.75;7396138;19;20010;-60
2023/04/18 09:37:51;;;;;;;7.30;2.03;;;;;;;33.34;24.92;101260.00;7398791;19;20011;-60
2023/04/18 09:40:18;;;;;;;1.92;1.45;;;;;;;33.23;24.92;101255.53;7397167;19;20348;-60
2023/04/18 09:42:46;;;;;;;9.02;2.70;;;;;;;33.20;25.02;101256.00;7395447;19;20031;-60
2023/04/18 09:45:14;;;;;;;1.88;1.52;;;;;;;33.43;25.05;101250.59;7394934;19;20074;-60
2023/04/18 09:47:40;;;;;;;8.25;2.75;;;;;;;33.42;24.56;101260.63;7394831;19;20025;-60
2023/04/18 09:50:08;;;;;;;10.63;2.95;;;;;;;33.62;25.15;101250.66;7395500;19;20014;-60
2023/04/18 09:52:39;;;;;;;4.55;2.45;;;;;;;33.89;24.97;101257.09;7393260;19;20594;-60
2023/04/18 09:55:08;;;;;;;5.22;2.15;;;;;;;34.11;24.32;101250.13;7396756;19;20070;-59
2023/04/18 09:57:36;;;;;;;6.80;2.47;;;;;;;34.10;24.04;101254.41;7395404;19;20014;-60
2023/04/18 10:00:19;;;;;;;5.05;1.95;;;;;;;34.01;24.60;101251.50;7399536;19;20014;-60
2023/04/18 10:02:48;;;;;;;4.55;2.17;;;;;;;34.06;24.16;101247.56;7396745;19;20036;-60
2023/04/18 10:05:15;;;;;;;9.23;2.70;;;;;;;34.23;23.98;101245.25;7396749;19;20007;-59
2023/04/18 10:07:45;;;;;;;6.00;2.38;;;;;;;34.43;24.31;101251.03;7396358;19;20470;-60
2023/04/18 10:10:12;;;;;;;6.10;2.35;;;;;;;34.50;23.67;101238.53;7398211;19;20018;-60
2023/04/18 10:12:40;;;;;;;4.60;1.67;;;;;;;34.40;23.87;101240.66;7393584;19;20018;-60
2023/04/18 10:15:07;;;;;;;4.75;2.17;;;;;;;34.36;23.44;101241.13;7394598;19;20011;-60
2023/04/18 10:17:45;;;;;;;3.53;2.30;;;;;;;32.63;24.94;101242.78;7394326;19;20018;-60
2023/04/18 10:20:16;;;;;;;5.03;2.17;;;;;;;32.59;25.04;101239.56;7398690;19;20356;-60
2023/04/18 10:22:43;;;;;;;7.85;2.30;;;;;;;33.84;24.39;101231.38;7395519;19;20031;-59
2023/04/18 10:25:09;;;;;;;2.03;1.67;;;;;;;32.77;24.36;101231.59;7393701;19;20098;-60
2023/04/18 10:27:47;;;;;;;5.22;2.60;;;;;;;33.92;23.63;101231.97;7394781;19;20014;-59
2023/04/18 10:30:15;;;;;;;5.88;2.75;;;;;;;33.77;23.80;101218.59;7397513;19;20027;-59
2023/04/18 10:32:41;;;;;;;5.22;2.13;;;;;;;33.90;23.67;101221.03;7393282;19;20029;-60
2023/04/18 10:35:09;;;;;;;4.55;2.20;;;;;;;34.10;24.06;101221.81;7396034;19;20015;-59
2023/04/18 10:37:49;;;;;;;2.30;1.80;;;;;;;34.13;23.38;101223.50;7394430;19;20039;-59
2023/04/18 10:40:16;;;;;;;3.55;2.05;;;;;;;33.96;23.28;101221.47;7397890;19;20082;-59
2023/04/18 10:42:51;;;;;;;8.45;2.20;;;;;;;33.78;23.45;101228.03;7394209;19;20014;-58
2023/04/18 10:45:22;;;;;;;4.43;1.63;;;;;;;33.71;22.98;101218.13;7392737;19;20010;-58
2023/04/18 10:47:48;;;;;;;5.88;2.25;;;;;;;33.90;23.05;101217.38;7393780;19;20010;-58
2023/04/18 10:50:16;;;;;;;10.43;3.20;;;;;;;34.38;23.45;101214.47;7397082;19;20013;-58
2023/04/18 10:52:42;;;;;;;3.33;1.45;;;;;;;34.46;23.05;101204.25;7394123;19;20022;-58
2023/04/18 10:55:11;;;;;;;5.03;2.75;;;;;;;34.57;23.19;101208.66;7395960;19;20448;-58
2023/04/18 10:57:41;;;;;;;4.63;2.30;;;;;;;34.67;22.80;101215.22;7393654;19;20030;-58
2023/04/18 11:00:12;;;;;;;6.18;2.33;;;;;;;33.50;23.87;101215.03;7398267;19;20014;-58
2023/04/18 11:02:39;;;;;;;;;;;;;;;34.42;23.54;101209.75;7393800;19;20025;-58
2023/04/18 11:05:07;;;;;;;3.53;2.22;;;;;;;34.78;22.79;101211.66;7393672;19;19940;-58
2023/04/18 11:07:38;;;;;;;5.45;1.60;;;;;;;35.00;23.33;101208.25;7391235;19;20476;-58
2023/04/18 11:10:06;;;;;;;3.55;2.13;;;;;;;35.21;22.62;101201.75;7395137;19;20038;-58
2023/04/18 11:12:34;;;;;;;3.33;1.27;;;;;;;35.09;22.50;101215.34;7391738;19;20010;-58
2023/04/18 11:15:02;;;;;;;3.85;1.67;;;;;;;34.69;22.13;101198.75;7392186;19;20021;-59
2023/04/18 11:17:31;;;;;;;10.35;2.17;;;;;;;34.56;22.49;101205.03;7392723;19;20078;-58
2023/04/18 11:20:21;;;;;;;5.70;2.10;;;;;;;34.86;22.73;101201.44;7396815;19;20014;-58
2023/04/18 11:22:50;;;;;;;6.38;2.88;;;;;;;34.22;22.70;101197.44;7390913;19;20019;-58
2023/04/18 11:25:18;;;;;;;2.55;1.38;;;;;;;34.59;22.99;101197.25;7390418;19;20018;-58
2023/04/18 11:27:46;;;;;;;4.07;2.03;;;;;;;33.89;22.74;101210.09;7390736;19;20014;-57